Time;durP1;ratioP1;P1;durP2;ratioP2;P2;SDS_P1;SDS_P2;PMS_P1;PMS_P2;Temp;Humidity;BMP_temperature;BMP_pressure;BME280_temperature;BME280_humidity;BME280_pressure;Samples;Min_cycle;Max_cycle;Signal;HPM_P1;HPM_P2
2022/05/26 00:01:04;;;;;;;11.40;7.28;;;;;;;;;;4954787;29;20043;-84
2022/05/26 00:03:38;;;;;;;11.75;7.50;;;;;;;;;;4953642;29;20047;-83
2022/05/26 00:06:06;;;;;;;13.15;8.00;;;;;;;;;;4953620;28;20079;-83
2022/05/26 00:08:32;;;;;;;13.25;7.20;;;;;;;;;;4937557;29;20110;-84
2022/05/26 00:10:58;;;;;;;12.05;8.07;;;;;;;;;;4953665;29;20047;-83
2022/05/26 00:13:25;;;;;;;12.43;7.70;;;;;;;;;;4954757;29;20039;-84
2022/05/26 00:15:51;;;;;;;13.55;7.63;;;;;;;;;;4953291;28;20047;-84
2022/05/26 00:18:17;;;;;;;13.05;7.45;;;;;;;;;;4953495;29;20050;-83
2022/05/26 00:20:43;;;;;;;12.27;6.90;;;;;;;;;;4953367;29;20043;-84
2022/05/26 00:23:09;;;;;;;14.10;7.20;;;;;;;;;;4954668;29;20035;-83
2022/05/26 00:25:35;;;;;;;13.20;6.47;;;;;;;;;;4953171;28;20083;-83
2022/05/26 00:28:01;;;;;;;13.73;7.20;;;;;;;;;;4953712;29;20086;-83
2022/05/26 00:30:27;;;;;;;13.88;7.20;;;;;;;;;;4953347;29;20479;-83
2022/05/26 00:32:53;;;;;;;15.25;7.10;;;;;;;;;;4953178;29;20043;-83
2022/05/26 00:35:19;;;;;;;17.15;8.48;;;;;;;;;;4953397;28;20398;-83
2022/05/26 00:37:46;;;;;;;15.45;7.75;;;;;;;;;;4954612;29;20043;-83
2022/05/26 00:40:13;;;;;;;15.93;6.57;;;;;;;;;;4954572;29;20047;-84
2022/05/26 00:42:39;;;;;;;20.52;7.35;;;;;;;;;;4954438;29;20079;-83
2022/05/26 00:45:06;;;;;;;17.58;8.40;;;;;;;;;;4956004;28;20118;-83
2022/05/26 00:47:34;;;;;;;20.52;7.25;;;;;;;;;;4956878;29;20082;-83
2022/05/26 00:50:04;;;;;;;18.90;7.35;;;;;;;;;;4957222;29;20130;-83
2022/05/26 00:52:33;;;;;;;21.92;8.10;;;;;;;;;;4956975;29;20050;-83
2022/05/26 00:55:02;;;;;;;22.48;8.27;;;;;;;;;;4956800;28;20055;-83
2022/05/26 00:57:47;;;;;;;22.40;8.55;;;;;;;;;;4956940;29;20130;-83
2022/05/26 01:00:16;;;;;;;24.73;8.77;;;;;;;;;;4956825;29;20046;-83
2022/05/26 01:02:47;;;;;;;25.77;8.77;;;;;;;;;;4956562;29;20051;-83
2022/05/26 01:05:16;;;;;;;27.58;9.35;;;;;;;;;;4940653;29;20094;-83
2022/05/26 01:07:42;;;;;;;27.15;9.00;;;;;;;;;;4956854;29;20059;-84
2022/05/26 01:10:10;;;;;;;20.88;9.32;;;;;;;;;;4956884;29;20368;-83
2022/05/26 01:12:36;;;;;;;23.88;8.90;;;;;;;;;;4956582;29;20074;-83
2022/05/26 01:15:07;;;;;;;28.00;9.93;;;;;;;;;;4957574;28;20069;-83
2022/05/26 01:17:36;;;;;;;26.33;9.43;;;;;;;;;;4956235;29;20047;-83
2022/05/26 01:20:14;;;;;;;28.35;9.95;;;;;;;;;;4956358;29;20043;-83
2022/05/26 01:22:40;;;;;;;31.02;11.98;;;;;;;;;;4956260;29;20054;-83
2022/05/26 01:25:16;;;;;;;26.15;9.50;;;;;;;;;;4956332;28;20043;-83
2022/05/26 01:27:44;;;;;;;27.15;10.07;;;;;;;;;;4957281;29;20565;-83
2022/05/26 01:30:13;;;;;;;25.30;10.63;;;;;;;;;;4957665;28;20087;-83
2022/05/26 01:32:57;;;;;;;28.60;9.57;;;;;;;;;;4957454;28;20433;-83
2022/05/26 01:35:26;;;;;;;28.25;9.77;;;;;;;;;;4957456;28;20094;-83
2022/05/26 01:38:25;;;;;;;29.13;9.90;;;;;;;;;;4955799;29;20082;-83
2022/05/26 01:41:13;;;;;;;35.28;9.85;;;;;;;;;;4945748;29;20480;-83
2022/05/26 01:43:45;;;;;;;31.63;10.15;;;;;;;;;;4956252;29;20087;-83
2022/05/26 01:46:19;;;;;;;22.45;9.18;;;;;;;;;;4955738;28;20517;-83
2022/05/26 01:48:48;;;;;;;32.15;10.18;;;;;;;;;;4955830;29;20043;-83
2022/05/26 01:51:29;;;;;;;27.90;8.63;;;;;;;;;;4957372;28;20118;-83
2022/05/26 01:54:06;;;;;;;24.58;8.68;;;;;;;;;;4956085;29;20043;-83
2022/05/26 01:56:55;;;;;;;28.65;9.45;;;;;;;;;;4954582;28;20376;-83
2022/05/26 01:59:27;;;;;;;30.92;9.18;;;;;;;;;;4955764;29;20053;-83
2022/05/26 02:01:59;;;;;;;28.33;9.63;;;;;;;;;;4955447;29;20110;-83
2022/05/26 02:04:29;;;;;;;27.40;9.23;;;;;;;;;;4955635;29;20050;-83
2022/05/26 02:07:08;;;;;;;27.83;8.70;;;;;;;;;;4956817;28;20035;-83
2022/05/26 02:09:38;;;;;;;33.45;9.45;;;;;;;;;;4955789;29;20069;-83
2022/05/26 02:12:07;;;;;;;32.95;9.07;;;;;;;;;;4955503;29;20061;-83
2022/05/26 02:14:39;;;;;;;23.10;8.38;;;;;;;;;;4939699;28;20044;-83
2022/05/26 02:17:08;;;;;;;30.10;8.90;;;;;;;;;;4956444;29;20466;-83
2022/05/26 02:19:36;;;;;;;40.30;9.18;;;;;;;;;;4956529;29;20032;-83
2022/05/26 02:22:02;;;;;;;29.42;8.80;;;;;;;;;;4955089;29;20130;-83
2022/05/26 02:24:33;;;;;;;34.60;8.90;;;;;;;;;;4956832;29;20425;-83
2022/05/26 02:26:59;;;;;;;33.95;8.80;;;;;;;;;;4954918;29;20043;-83
2022/05/26 02:32:11;;;;;;;28.38;8.68;;;;;;;;;;4956198;29;20051;-83
2022/05/26 02:34:39;;;;;;;32.05;8.25;;;;;;;;;;4954962;28;20049;-82
2022/05/26 02:37:06;;;;;;;30.42;8.13;;;;;;;;;;4955088;29;20043;-83
2022/05/26 02:39:32;;;;;;;30.75;7.90;;;;;;;;;;4955042;29;20047;-83
2022/05/26 02:41:58;;;;;;;33.17;8.70;;;;;;;;;;4955876;29;20050;-83
2022/05/26 02:44:26;;;;;;;29.10;7.65;;;;;;;;;;4954953;29;20043;-83
2022/05/26 02:47:10;;;;;;;32.28;7.60;;;;;;;;;;4954552;28;20507;-83
2022/05/26 02:49:51;;;;;;;29.63;8.52;;;;;;;;;;4954891;29;20047;-83
2022/05/26 02:52:21;;;;;;;28.40;7.82;;;;;;;;;;4955920;29;20047;-83
2022/05/26 02:54:58;;;;;;;28.83;7.03;;;;;;;;;;4954640;28;20126;-83
2022/05/26 02:57:36;;;;;;;33.17;7.57;;;;;;;;;;4956041;29;20042;-83
2022/05/26 03:00:02;;;;;;;28.38;6.95;;;;;;;;;;4954964;29;20047;-82
2022/05/26 03:02:31;;;;;;;33.85;7.72;;;;;;;;;;4954657;29;20170;-84
2022/05/26 03:05:02;;;;;;;30.70;6.70;;;;;;;;;;4938533;28;20070;-83
2022/05/26 03:07:30;;;;;;;27.63;6.72;;;;;;;;;;4954054;28;20043;-83
2022/05/26 03:09:56;;;;;;;27.35;7.47;;;;;;;;;;4954428;29;20475;-83
2022/05/26 03:12:27;;;;;;;29.45;8.23;;;;;;;;;;4954347;29;20043;-83
2022/05/26 03:14:53;;;;;;;24.98;7.05;;;;;;;;;;4954283;28;20130;-83
2022/05/26 03:17:19;;;;;;;34.50;7.95;;;;;;;;;;4955311;29;20090;-83
2022/05/26 03:19:45;;;;;;;27.50;7.03;;;;;;;;;;4954446;29;20106;-84
2022/05/26 03:22:11;;;;;;;28.67;6.65;;;;;;;;;;4954113;29;20521;-83
2022/05/26 03:24:37;;;;;;;29.63;6.25;;;;;;;;;;4955223;28;20043;-84
2022/05/26 03:27:03;;;;;;;27.88;7.43;;;;;;;;;;4954219;29;20047;-84
2022/05/26 03:29:29;;;;;;;29.17;6.63;;;;;;;;;;4955156;29;20395;-83
2022/05/26 03:31:55;;;;;;;35.63;6.90;;;;;;;;;;4955373;29;20051;-84
2022/05/26 03:42:38;;;;;;;26.83;6.05;;;;;;;;;;4954989;29;20055;-83
2022/05/26 03:45:05;;;;;;;26.63;6.50;;;;;;;;;;4957954;28;20063;-83
2022/05/26 03:47:31;;;;;;;24.10;6.38;;;;;;;;;;4957129;28;20478;-83
2022/05/26 03:49:57;;;;;;;23.73;5.57;;;;;;;;;;4957399;28;20538;-83
2022/05/26 03:52:23;;;;;;;21.48;5.80;;;;;;;;;;4957559;28;20078;-83
2022/05/26 03:54:50;;;;;;;20.63;5.72;;;;;;;;;;4956975;28;20085;-83
2022/05/26 03:57:22;;;;;;;20.45;5.43;;;;;;;;;;4957185;28;20560;-83
2022/05/26 03:59:48;;;;;;;19.15;4.82;;;;;;;;;;4974376;28;20093;-83
2022/05/26 04:02:14;;;;;;;24.52;5.07;;;;;;;;;;4956779;28;20050;-83
2022/05/26 04:04:40;;;;;;;19.85;4.38;;;;;;;;;;4956705;28;20042;-83
2022/05/26 04:07:06;;;;;;;19.35;4.80;;;;;;;;;;4974391;28;20132;-83
2022/05/26 04:09:31;;;;;;;16.75;4.63;;;;;;;;;;4974204;28;20042;-83
2022/05/26 04:11:57;;;;;;;18.25;3.72;;;;;;;;;;4956778;28;20375;-83
2022/05/26 04:14:23;;;;;;;13.70;3.67;;;;;;;;;;4956595;28;20047;-84
2022/05/26 04:16:49;;;;;;;16.02;3.20;;;;;;;;;;4956705;28;20051;-83
2022/05/26 04:19:15;;;;;;;14.13;3.60;;;;;;;;;;4955810;28;20122;-83
2022/05/26 04:22:15;;;;;;;11.45;2.50;;;;;;;;;;4956619;28;20042;-83
2022/05/26 04:24:27;;;;;;;;;;;;;;;;;;4974039;28;20098;-83
2022/05/26 04:26:53;;;;;;;;;;;;;;;;;;4974225;28;19918;-83
2022/05/26 04:29:23;;;;;;;10.13;3.00;;;;;;;;;;4973875;28;20078;-83
2022/05/26 04:31:49;;;;;;;12.32;2.60;;;;;;;;;;4956871;28;20126;-83
2022/05/26 04:34:15;;;;;;;12.75;2.40;;;;;;;;;;4973656;28;20486;-83
2022/05/26 04:36:41;;;;;;;12.23;2.45;;;;;;;;;;4956649;28;20061;-84
2022/05/26 04:39:07;;;;;;;13.75;2.35;;;;;;;;;;4956448;28;20370;-83
2022/05/26 04:41:33;;;;;;;11.02;2.55;;;;;;;;;;4956656;28;20173;-84
2022/05/26 04:43:59;;;;;;;15.65;2.55;;;;;;;;;;4956354;28;20451;-83
2022/05/26 04:46:25;;;;;;;13.23;2.53;;;;;;;;;;4956346;28;20114;-83
2022/05/26 04:48:51;;;;;;;11.32;2.20;;;;;;;;;;4956286;28;20334;-83
2022/05/26 04:51:18;;;;;;;9.68;2.08;;;;;;;;;;4973872;28;20054;-83
2022/05/26 04:53:44;;;;;;;9.90;1.90;;;;;;;;;;4973411;28;20434;-83
2022/05/26 04:56:10;;;;;;;9.32;1.65;;;;;;;;;;4940458;28;20046;-83
2022/05/26 04:58:36;;;;;;;11.75;2.22;;;;;;;;;;4973767;28;20141;-83
2022/05/26 05:01:12;;;;;;;9.40;2.00;;;;;;;;;;4956235;28;20050;-83
2022/05/26 05:03:37;;;;;;;10.68;1.88;;;;;;;;;;4956195;28;20122;-83
2022/05/26 05:06:03;;;;;;;11.15;1.85;;;;;;;;;;4956248;28;20094;-83
2022/05/26 05:08:29;;;;;;;10.30;1.73;;;;;;;;;;4973331;28;20047;-83
2022/05/26 05:10:55;;;;;;;8.88;2.25;;;;;;;;;;4973733;28;20093;-83
2022/05/26 05:13:21;;;;;;;10.48;2.13;;;;;;;;;;4956221;28;20125;-83
2022/05/26 05:15:55;;;;;;;9.13;1.90;;;;;;;;;;4956203;28;20046;-83
2022/05/26 05:18:21;;;;;;;8.88;1.58;;;;;;;;;;4956431;28;20142;-83
2022/05/26 05:20:47;;;;;;;8.77;1.65;;;;;;;;;;4973321;28;20546;-83
2022/05/26 05:23:13;;;;;;;10.98;1.90;;;;;;;;;;4973385;28;20393;-83
2022/05/26 05:25:42;;;;;;;9.25;1.70;;;;;;;;;;4955918;28;20051;-83
2022/05/26 05:28:10;;;;;;;10.80;1.70;;;;;;;;;;4956273;28;20043;-83
2022/05/26 05:30:40;;;;;;;10.00;1.65;;;;;;;;;;4974987;28;20501;-83
2022/05/26 05:33:06;;;;;;;12.13;2.17;;;;;;;;;;4976849;28;20125;-83
2022/05/26 05:35:35;;;;;;;6.53;1.70;;;;;;;;;;4959503;28;20053;-83
2022/05/26 05:38:02;;;;;;;6.70;1.38;;;;;;;;;;4959338;28;20058;-83
2022/05/26 05:40:28;;;;;;;8.52;1.67;;;;;;;;;;4976600;28;20046;-83
2022/05/26 05:42:54;;;;;;;9.52;1.85;;;;;;;;;;4943461;28;20043;-83
2022/05/26 05:45:20;;;;;;;13.70;2.13;;;;;;;;;;4976296;28;20495;-83
2022/05/26 05:47:46;;;;;;;8.80;1.30;;;;;;;;;;4976539;28;20062;-83
2022/05/26 05:50:12;;;;;;;6.07;1.23;;;;;;;;;;4959199;28;20042;-83
2022/05/26 05:52:38;;;;;;;6.47;1.40;;;;;;;;;;4976761;28;20099;-83
2022/05/26 05:55:04;;;;;;;6.97;1.38;;;;;;;;;;4976393;28;20050;-83
2022/05/26 05:57:31;;;;;;;10.65;1.80;;;;;;;;;;4959400;28;20047;-83
2022/05/26 05:59:57;;;;;;;7.22;1.20;;;;;;;;;;4976262;28;20046;-83
2022/05/26 06:02:23;;;;;;;8.60;1.85;;;;;;;;;;4959094;28;20089;-83
2022/05/26 06:04:49;;;;;;;10.48;1.75;;;;;;;;;;4958844;28;20046;-83
2022/05/26 06:07:16;;;;;;;8.80;1.40;;;;;;;;;;4959031;28;20045;-83
2022/05/26 06:09:43;;;;;;;7.75;1.35;;;;;;;;;;4976211;28;20046;-83
2022/05/26 06:12:09;;;;;;;8.00;1.45;;;;;;;;;;4958870;28;20051;-83
2022/05/26 06:14:35;;;;;;;5.90;1.17;;;;;;;;;;4958610;28;20462;-83
2022/05/26 06:17:01;;;;;;;7.57;1.02;;;;;;;;;;4958911;28;20069;-83
2022/05/26 06:19:28;;;;;;;9.95;1.20;;;;;;;;;;4958451;28;20098;-83
2022/05/26 06:21:53;;;;;;;12.00;1.83;;;;;;;;;;4976018;28;20125;-83
2022/05/26 06:24:23;;;;;;;6.93;1.38;;;;;;;;;;4958597;28;20085;-83
2022/05/26 06:26:49;;;;;;;7.53;1.50;;;;;;;;;;4958514;28;20434;-83
2022/05/26 06:37:29;;;;;;;8.88;1.35;;;;;;;;;;4975944;28;20387;-84
2022/05/26 06:39:55;;;;;;;7.85;1.50;;;;;;;;;;4975455;28;20045;-84
2022/05/26 06:42:25;;;;;;;9.50;1.33;;;;;;;;;;4975042;28;20055;-84
2022/05/26 06:44:51;;;;;;;11.35;1.25;;;;;;;;;;4957965;28;20180;-84
2022/05/26 06:47:19;;;;;;;7.93;1.40;;;;;;;;;;4958091;28;20457;-83
2022/05/26 06:49:46;;;;;;;8.90;1.60;;;;;;;;;;4957826;28;20509;-83
2022/05/26 06:52:12;;;;;;;7.15;1.10;;;;;;;;;;4958324;28;20109;-83
2022/05/26 06:54:41;;;;;;;10.52;1.40;;;;;;;;;;4957684;28;20064;-84
2022/05/26 06:57:07;;;;;;;5.00;1.05;;;;;;;;;;4958162;28;20050;-83
2022/05/26 06:59:33;;;;;;;4.97;1.13;;;;;;;;;;4957776;28;20050;-83
2022/05/26 07:01:59;;;;;;;9.02;1.38;;;;;;;;;;4953987;29;20047;-84
2022/05/26 07:04:26;;;;;;;6.63;1.20;;;;;;;;;;4954290;28;20047;-83
2022/05/26 07:06:53;;;;;;;8.77;1.52;;;;;;;;;;4953788;28;20467;-83
2022/05/26 07:09:19;;;;;;;6.53;1.00;;;;;;;;;;4955643;29;20065;-84
2022/05/26 07:11:45;;;;;;;6.68;1.25;;;;;;;;;;4953809;28;20134;-84
2022/05/26 07:14:12;;;;;;;6.68;1.40;;;;;;;;;;4953879;28;20051;-84
2022/05/26 07:16:38;;;;;;;9.85;1.23;;;;;;;;;;4954949;28;20498;-84
2022/05/26 07:19:04;;;;;;;5.55;0.90;;;;;;;;;;4954389;29;20062;-85
2022/05/26 07:21:30;;;;;;;5.75;1.02;;;;;;;;;;4954043;29;20058;-83
2022/05/26 07:23:56;;;;;;;8.05;1.05;;;;;;;;;;4955711;29;20043;-84
2022/05/26 07:26:22;;;;;;;5.20;0.80;;;;;;;;;;4955316;28;20042;-84
2022/05/26 07:28:51;;;;;;;4.60;0.90;;;;;;;;;;4938234;29;20475;-85
2022/05/26 07:31:18;;;;;;;4.28;1.02;;;;;;;;;;4954239;29;20138;-85
2022/05/26 07:33:44;;;;;;;8.27;1.00;;;;;;;;;;4954188;29;20054;-83
2022/05/26 07:41:16;;;;;;;5.38;1.20;;;;;;;;;;4953748;28;20047;-84
2022/05/26 07:41:42;;;;;;;5.73;0.87;;;;;;;;;;4955378;28;20051;-85
2022/05/26 07:44:08;;;;;;;10.52;1.52;;;;;;;;;;4953920;28;20043;-81
2022/05/26 07:46:34;;;;;;;5.55;1.30;;;;;;;;;;4954685;28;20059;-85
2022/05/26 07:49:00;;;;;;;8.98;1.50;;;;;;;;;;4953820;28;20046;-84
2022/05/26 07:51:26;;;;;;;8.68;1.10;;;;;;;;;;4953600;28;20047;-84
2022/05/26 07:53:52;;;;;;;5.32;0.90;;;;;;;;;;4953009;28;20529;-84
2022/05/26 07:56:20;;;;;;;10.10;1.48;;;;;;;;;;4953478;28;20047;-85
2022/05/26 07:58:47;;;;;;;7.78;1.30;;;;;;;;;;4954696;28;20150;-85
2022/05/26 08:01:14;;;;;;;7.55;1.20;;;;;;;;;;4953615;29;20051;-84
2022/05/26 08:03:40;;;;;;;7.72;1.02;;;;;;;;;;4955156;29;20106;-84
2022/05/26 08:06:06;;;;;;;6.45;0.95;;;;;;;;;;4953391;28;20483;-85
2022/05/26 08:08:33;;;;;;;5.30;0.90;;;;;;;;;;4953622;28;20483;-84
2022/05/26 08:10:59;;;;;;;6.45;1.40;;;;;;;;;;4953674;28;20479;-84
2022/05/26 08:13:25;;;;;;;3.50;0.73;;;;;;;;;;4953859;29;20047;-84
2022/05/26 08:15:52;;;;;;;5.45;0.93;;;;;;;;;;4953179;28;20502;-84
2022/05/26 08:18:18;;;;;;;6.45;1.00;;;;;;;;;;4937852;29;20043;-83
2022/05/26 08:20:45;;;;;;;5.38;1.30;;;;;;;;;;4933236;28;20043;-84
2022/05/26 08:23:12;;;;;;;6.13;0.73;;;;;;;;;;4956691;28;20386;-84
2022/05/26 08:25:38;;;;;;;8.63;1.70;;;;;;;;;;4956591;28;20050;-84
2022/05/26 08:28:05;;;;;;;6.53;1.00;;;;;;;;;;4956961;28;20045;-84
2022/05/26 08:30:31;;;;;;;8.40;1.40;;;;;;;;;;4956424;28;20054;-84
2022/05/26 08:32:57;;;;;;;5.63;1.00;;;;;;;;;;4956555;28;20078;-84
2022/05/26 08:35:24;;;;;;;9.45;1.60;;;;;;;;;;4956371;28;20054;-84
2022/05/26 08:37:50;;;;;;;5.88;1.00;;;;;;;;;;4957563;28;20134;-84
2022/05/26 08:40:33;;;;;;;4.80;1.20;;;;;;;;;;4973924;28;20043;-84
2022/05/26 08:42:59;;;;;;;5.90;1.00;;;;;;;;;;4956528;28;20070;-84
2022/05/26 08:45:25;;;;;;;8.65;1.15;;;;;;;;;;4956212;28;20089;-84
2022/05/26 08:47:51;;;;;;;6.97;1.52;;;;;;;;;;4955877;28;20109;-83
2022/05/26 08:50:23;;;;;;;5.65;0.80;;;;;;;;;;4956482;28;20046;-84
2022/05/26 08:52:56;;;;;;;6.75;0.90;;;;;;;;;;4956150;28;20046;-84
2022/05/26 08:55:25;;;;;;;10.30;1.10;;;;;;;;;;4956525;28;20066;-84
2022/05/26 08:57:54;;;;;;;8.23;1.02;;;;;;;;;;4951730;29;20118;-84
2022/05/26 09:00:21;;;;;;;6.50;1.02;;;;;;;;;;4937149;29;20079;-84
2022/05/26 09:02:53;;;;;;;10.05;1.17;;;;;;;;;;4920160;29;20406;-84
2022/05/26 09:05:20;;;;;;;7.70;1.25;;;;;;;;;;4938816;29;20437;-84
2022/05/26 09:13:33;;;;;;;3.30;0.52;;;;;;;;;;4957202;29;20043;-84
2022/05/26 09:16:00;;;;;;;9.10;1.23;;;;;;;;;;4957643;28;20046;-84
2022/05/26 09:18:26;;;;;;;6.65;0.98;;;;;;;;;;4955983;28;20039;-84
2022/05/26 09:20:52;;;;;;;6.88;0.93;;;;;;;;;;4940532;29;20406;-84
2022/05/26 09:23:23;;;;;;;4.40;0.85;;;;;;;;;;4956869;29;20040;-84
2022/05/26 09:25:51;;;;;;;8.63;1.00;;;;;;;;;;4957829;28;20035;-83
2022/05/26 09:28:31;;;;;;;7.32;1.15;;;;;;;;;;4940269;29;20083;-83
2022/05/26 09:31:15;;;;;;;4.07;0.60;;;;;;;;;;4924261;29;20101;-84
2022/05/26 09:33:41;;;;;;;3.70;0.70;;;;;;;;;;4958008;29;20510;-84
2022/05/26 09:36:15;;;;;;;4.35;0.73;;;;;;;;;;4940041;29;20054;-84
2022/05/26 09:38:43;;;;;;;4.35;0.73;;;;;;;;;;4940728;29;20273;-84
2022/05/26 09:41:14;;;;;;;5.07;1.00;;;;;;;;;;4924027;29;20043;-84
2022/05/26 09:43:46;;;;;;;6.22;1.23;;;;;;;;;;4940255;29;20047;-83
2022/05/26 09:46:15;;;;;;;5.55;0.70;;;;;;;;;;4936471;29;20060;-84
2022/05/26 09:48:41;;;;;;;5.03;0.80;;;;;;;;;;4937065;29;20043;-84
2022/05/26 09:51:13;;;;;;;7.30;0.70;;;;;;;;;;4936844;29;20050;-84
2022/05/26 09:53:41;;;;;;;5.03;1.00;;;;;;;;;;4936730;29;20499;-84
2022/05/26 09:56:08;;;;;;;5.97;0.98;;;;;;;;;;4936561;29;20047;-83
2022/05/26 09:58:39;;;;;;;5.90;0.90;;;;;;;;;;4936606;29;20050;-86
2022/05/26 10:01:23;;;;;;;6.53;1.48;;;;;;;;;;4935565;29;20047;-84
2022/05/26 10:03:58;;;;;;;5.97;0.90;;;;;;;;;;4936968;29;20035;-83
2022/05/26 10:06:25;;;;;;;;;;;;;;;;;;4936685;29;20106;-84
2022/05/26 10:09:05;;;;;;;7.00;0.80;;;;;;;;;;4936497;29;19918;-84
2022/05/26 10:11:37;;;;;;;5.00;0.90;;;;;;;;;;4936622;29;20040;-84
2022/05/26 10:14:23;;;;;;;4.00;0.77;;;;;;;;;;4920578;29;20048;-82
2022/05/26 10:17:08;;;;;;;6.25;0.80;;;;;;;;;;4934571;29;20405;-84
2022/05/26 10:19:37;;;;;;;9.15;1.10;;;;;;;;;;4936309;29;20051;-84
2022/05/26 10:22:29;;;;;;;3.85;0.80;;;;;;;;;;4937253;29;20043;-84
2022/05/26 10:25:14;;;;;;;7.40;0.98;;;;;;;;;;4933441;29;20123;-84
2022/05/26 10:27:56;;;;;;;5.43;0.85;;;;;;;;;;4937189;29;20395;-84
2022/05/26 10:30:22;;;;;;;4.53;0.63;;;;;;;;;;4936360;29;20086;-84
2022/05/26 10:32:54;;;;;;;6.25;0.60;;;;;;;;;;4937150;29;20076;-84
2022/05/26 10:35:23;;;;;;;4.40;0.77;;;;;;;;;;4935905;29;20123;-83
2022/05/26 10:38:01;;;;;;;5.57;0.75;;;;;;;;;;4935847;29;20080;-84
2022/05/26 10:40:36;;;;;;;6.65;0.77;;;;;;;;;;4935786;29;20487;-84
2022/05/26 10:43:14;;;;;;;3.42;0.73;;;;;;;;;;4936921;29;20043;-85
2022/05/26 10:45:41;;;;;;;6.95;0.90;;;;;;;;;;4935525;29;20130;-84
2022/05/26 10:48:08;;;;;;;4.88;0.73;;;;;;;;;;4935533;29;20100;-84
2022/05/26 10:50:46;;;;;;;5.35;0.82;;;;;;;;;;4935657;29;20035;-84
2022/05/26 10:53:30;;;;;;;5.18;0.88;;;;;;;;;;4935690;29;20395;-85
2022/05/26 10:55:59;;;;;;;5.90;0.77;;;;;;;;;;4935861;29;20131;-84
2022/05/26 10:58:33;;;;;;;6.80;0.90;;;;;;;;;;4935360;29;20461;-84
2022/05/26 11:01:02;;;;;;;6.85;1.13;;;;;;;;;;4936961;29;20140;-84
2022/05/26 11:03:36;;;;;;;5.57;1.10;;;;;;;;;;4935331;29;20483;-84
2022/05/26 11:06:07;;;;;;;4.25;0.70;;;;;;;;;;4934606;29;20054;-84
2022/05/26 11:08:42;;;;;;;4.75;0.90;;;;;;;;;;4935238;29;20514;-84
2022/05/26 11:11:20;;;;;;;6.00;1.02;;;;;;;;;;4935645;29;20436;-85
2022/05/26 11:13:56;;;;;;;7.30;1.00;;;;;;;;;;4935075;29;20051;-85
2022/05/26 11:19:38;;;;;;;3.75;0.77;;;;;;;;;;4935018;29;20051;-85
2022/05/26 11:22:05;;;;;;;4.68;0.95;;;;;;;;;;4935141;29;20384;-86
2022/05/26 11:24:32;;;;;;;6.10;1.40;;;;;;;;;;4935435;29;20074;-85
2022/05/26 11:27:04;;;;;;;6.72;1.30;;;;;;;;;;4936250;29;20488;-85
2022/05/26 11:29:36;;;;;;;6.80;1.08;;;;;;;;;;4935906;29;20043;-85
2022/05/26 11:36:07;;;;;;;6.95;1.20;;;;;;;;;;4934049;29;20048;-83
2022/05/26 11:38:04;;;;;;;7.75;1.40;;;;;;;;;;4935740;29;20051;-84
2022/05/26 11:40:35;;;;;;;7.00;1.35;;;;;;;;;;4934866;29;20055;-84
2022/05/26 11:43:03;;;;;;;7.93;1.98;;;;;;;;;;4936196;29;20099;-84
2022/05/26 11:45:34;;;;;;;10.90;1.40;;;;;;;;;;4934559;29;20062;-83
2022/05/26 11:48:01;;;;;;;6.82;1.55;;;;;;;;;;4934688;29;20172;-83
2022/05/26 11:50:36;;;;;;;6.97;1.35;;;;;;;;;;4918942;29;20040;-84
2022/05/26 11:53:04;;;;;;;6.90;1.20;;;;;;;;;;4935940;29;20107;-84
2022/05/26 11:55:45;;;;;;;4.93;1.25;;;;;;;;;;4934914;29;20036;-84
2022/05/26 11:58:26;;;;;;;6.43;1.17;;;;;;;;;;4934524;29;20107;-83
2022/05/26 12:01:09;;;;;;;5.32;0.90;;;;;;;;;;4934710;29;20048;-83
2022/05/26 12:03:48;;;;;;;4.43;1.05;;;;;;;;;;4935597;29;20047;-84
2022/05/26 12:06:15;;;;;;;4.35;0.77;;;;;;;;;;4934893;29;20043;-84
2022/05/26 12:08:53;;;;;;;4.82;1.20;;;;;;;;;;4934359;29;20127;-84
2022/05/26 12:11:20;;;;;;;7.60;1.20;;;;;;;;;;4930556;29;20119;-84
2022/05/26 12:13:57;;;;;;;4.60;0.98;;;;;;;;;;4933990;29;20058;-84
2022/05/26 12:16:25;;;;;;;7.68;1.25;;;;;;;;;;4934096;29;20110;-84
2022/05/26 12:18:51;;;;;;;5.95;0.85;;;;;;;;;;4934049;29;20385;-83
2022/05/26 12:21:34;;;;;;;6.80;1.08;;;;;;;;;;4934343;29;20516;-83
2022/05/26 12:24:20;;;;;;;4.80;1.00;;;;;;;;;;4934226;29;20123;-84
2022/05/26 12:26:49;;;;;;;5.60;0.90;;;;;;;;;;4934446;29;20039;-83
2022/05/26 12:29:33;;;;;;;4.10;0.90;;;;;;;;;;4934096;29;20047;-83
2022/05/26 12:32:11;;;;;;;6.88;1.35;;;;;;;;;;4934439;29;20440;-83
2022/05/26 12:34:45;;;;;;;5.97;1.15;;;;;;;;;;4935190;29;20495;-83
2022/05/26 12:37:18;;;;;;;8.90;1.15;;;;;;;;;;4935509;29;20126;-83
2022/05/26 12:39:58;;;;;;;8.57;1.30;;;;;;;;;;4936215;29;20131;-83
2022/05/26 12:42:39;;;;;;;6.85;1.40;;;;;;;;;;4937968;29;20103;-83
2022/05/26 12:45:32;;;;;;;7.00;1.13;;;;;;;;;;4940744;29;20082;-82
2022/05/26 12:48:07;;;;;;;5.72;1.00;;;;;;;;;;4905882;29;20110;-83
2022/05/26 12:50:37;;;;;;;6.93;1.30;;;;;;;;;;4941461;29;20042;-83
2022/05/26 12:53:08;;;;;;;6.68;1.20;;;;;;;;;;4958161;29;20422;-83
2022/05/26 12:55:38;;;;;;;5.95;1.23;;;;;;;;;;4941171;29;20508;-85
2022/05/26 12:58:13;;;;;;;9.93;1.58;;;;;;;;;;4940838;29;20043;-83
2022/05/26 13:00:39;;;;;;;6.28;1.30;;;;;;;;;;4958041;29;20534;-83
2022/05/26 13:03:08;;;;;;;11.48;1.63;;;;;;;;;;4958166;28;20474;-83
2022/05/26 13:05:35;;;;;;;7.20;1.50;;;;;;;;;;4941035;29;20050;-83
2022/05/26 13:08:02;;;;;;;4.78;1.10;;;;;;;;;;4940811;29;20035;-83
2022/05/26 13:10:32;;;;;;;9.32;1.20;;;;;;;;;;4940887;29;20047;-83
2022/05/26 13:12:59;;;;;;;7.40;1.13;;;;;;;;;;4940669;29;20431;-83
2022/05/26 13:15:26;;;;;;;6.18;1.23;;;;;;;;;;4940414;29;20099;-83
2022/05/26 13:17:53;;;;;;;7.40;1.38;;;;;;;;;;4957800;29;20054;-83
2022/05/26 13:20:22;;;;;;;5.68;1.20;;;;;;;;;;4940403;29;20051;-83
2022/05/26 13:22:48;;;;;;;5.20;1.13;;;;;;;;;;4940590;29;20051;-83
2022/05/26 13:25:23;;;;;;;6.88;1.42;;;;;;;;;;4940669;29;20178;-84
2022/05/26 13:27:50;;;;;;;5.63;1.30;;;;;;;;;;4940666;29;20040;-83
2022/05/26 13:33:08;;;;;;;6.95;1.13;;;;;;;;;;4957741;29;20047;-83
2022/05/26 13:35:42;;;;;;;6.60;1.30;;;;;;;;;;4924263;29;20047;-83
2022/05/26 13:38:28;;;;;;;8.30;1.55;;;;;;;;;;4940365;29;20047;-83
2022/05/26 13:40:54;;;;;;;6.10;1.63;;;;;;;;;;4957639;29;20086;-83
2022/05/26 13:43:20;;;;;;;4.65;1.85;;;;;;;;;;4940239;29;20043;-83
2022/05/26 13:45:47;;;;;;;11.05;1.60;;;;;;;;;;4939832;29;20055;-83
2022/05/26 13:48:32;;;;;;;8.07;1.75;;;;;;;;;;4924463;29;20415;-83
2022/05/26 13:51:04;;;;;;;6.60;1.55;;;;;;;;;;4940326;29;20070;-83
2022/05/26 13:53:30;;;;;;;7.40;1.83;;;;;;;;;;4940254;29;20274;-83
2022/05/26 13:55:57;;;;;;;12.27;1.80;;;;;;;;;;4939719;29;20076;-83
2022/05/26 13:58:24;;;;;;;10.25;1.73;;;;;;;;;;4940269;29;20043;-82
2022/05/26 14:00:58;;;;;;;7.50;1.88;;;;;;;;;;4939867;29;20615;-83
2022/05/26 14:03:26;;;;;;;4.95;1.25;;;;;;;;;;4939833;29;20043;-83
2022/05/26 14:06:02;;;;;;;7.90;1.20;;;;;;;;;;4956932;28;20039;-83
2022/05/26 14:08:28;;;;;;;6.05;1.10;;;;;;;;;;4939739;29;20080;-83
2022/05/26 14:10:55;;;;;;;9.38;1.55;;;;;;;;;;4939802;29;20046;-83
2022/05/26 14:13:21;;;;;;;8.25;1.35;;;;;;;;;;4939961;29;20443;-83
2022/05/26 14:15:53;;;;;;;10.45;1.90;;;;;;;;;;4956798;28;20050;-82
2022/05/26 14:18:24;;;;;;;6.28;1.60;;;;;;;;;;4939492;29;20054;-83
2022/05/26 14:21:01;;;;;;;7.28;1.52;;;;;;;;;;4939524;29;20185;-83
2022/05/26 14:23:28;;;;;;;8.00;1.83;;;;;;;;;;4956870;29;20047;-83
2022/05/26 14:26:17;;;;;;;7.63;1.70;;;;;;;;;;4939510;29;20047;-83
2022/05/26 14:28:43;;;;;;;6.85;1.30;;;;;;;;;;4927431;29;20141;-83
2022/05/26 14:31:20;;;;;;;7.28;1.40;;;;;;;;;;4939385;29;20099;-82
2022/05/26 14:34:01;;;;;;;7.53;1.63;;;;;;;;;;4939335;29;20074;-85
2022/05/26 14:36:27;;;;;;;8.43;1.63;;;;;;;;;;4939183;29;20050;-83
2022/05/26 14:38:53;;;;;;;9.00;1.80;;;;;;;;;;4938214;29;20289;-84
2022/05/26 14:41:20;;;;;;;6.80;1.90;;;;;;;;;;4923594;29;20126;-83
2022/05/26 14:43:46;;;;;;;12.40;2.15;;;;;;;;;;4938251;29;20043;-83
2022/05/26 14:46:13;;;;;;;10.35;1.85;;;;;;;;;;4938013;29;20066;-83
2022/05/26 14:48:39;;;;;;;7.60;1.50;;;;;;;;;;4936560;28;20118;-82
2022/05/26 14:51:05;;;;;;;5.70;1.60;;;;;;;;;;4936759;29;20047;-85
2022/05/26 14:56:16;;;;;;;8.32;1.40;;;;;;;;;;4935774;29;20419;-83
2022/05/26 14:58:43;;;;;;;7.70;1.45;;;;;;;;;;4918814;29;20384;-84
2022/05/26 15:01:09;;;;;;;7.13;1.90;;;;;;;;;;4935267;29;20040;-84
2022/05/26 15:03:35;;;;;;;10.25;1.80;;;;;;;;;;4918388;29;20506;-83
2022/05/26 15:06:01;;;;;;;8.48;2.00;;;;;;;;;;4934622;29;20043;-83
2022/05/26 15:08:41;;;;;;;9.80;1.80;;;;;;;;;;4935860;29;20079;-83
2022/05/26 15:11:07;;;;;;;10.00;1.92;;;;;;;;;;4953064;28;20469;-83
2022/05/26 15:13:33;;;;;;;6.10;1.90;;;;;;;;;;4938037;29;20139;-82
2022/05/26 15:15:59;;;;;;;7.72;1.77;;;;;;;;;;4937445;29;20118;-84
2022/05/26 15:18:26;;;;;;;8.15;1.90;;;;;;;;;;4937673;29;20043;-83
2022/05/26 15:20:51;;;;;;;8.63;1.70;;;;;;;;;;4937242;29;20098;-84
2022/05/26 15:23:17;;;;;;;8.48;1.98;;;;;;;;;;4936602;29;20038;-84
2022/05/26 15:28:28;;;;;;;7.22;2.00;;;;;;;;;;4954906;29;20039;-85
2022/05/26 15:30:54;;;;;;;11.13;1.70;;;;;;;;;;4937268;29;20483;-83
2022/05/26 15:33:20;;;;;;;12.43;2.60;;;;;;;;;;4937657;29;20046;-84
2022/05/26 15:35:46;;;;;;;10.77;1.85;;;;;;;;;;4954285;28;20483;-84